Minneapolis, MN

2:45 AM CST on February 23, 2017 (GMT -0600)
RBC Plaza Weather | | Change Station
Active Advisory: Winter Storm Watch

Elev 853 ft 44.98 °N, 93.27 °W | Updated 15 seconds ago

Overcast
Overcast
33.2 °F
Feels Like 23 °F
N
16.0
Wind Variable Wind from NE

Today
High -- | Low -- °F
--% Chance of Precip.
Yesterday
High -- | Low -- °F
Precip. -- in
Pressure 29.87 in
Visibility 10.0 miles
Clouds Overcast 1900 ft
Windchill 23 °F
Dew Point 30 °F
Humidity 91%
Rainfall 0.00 in
Snow Depth Not available.
7:00 AM 5:52 PM
Waning Crescent, 12% visible
METAR KMIC 230753Z AUTO 35008KT 10SM OVC019 02/M02 A2985 RMK AO2 SLP113 T00221022
Pressure 29.87 in
Visibility 10.0 miles
Clouds Overcast 1900 ft
Windchill 23 °F
Dew Point 30 °F
Humidity 91%
Rainfall 0.00 in
Snow Depth Not available.
7:00 AM 5:52 PM
Waning Crescent, 12% visible
METAR KMIC 230753Z AUTO 35008KT 10SM OVC019 02/M02 A2985 RMK AO2 SLP113 T00221022

Get Your Daily Forecast Email!

Thanks for signing up!

Be on the lookout for a verification email in your inbox.

You'll start receiving the daily forecast at 8 AM.

×

10-Day Weather Forecast

Almanac

Astronomy

Feb. 23, 2017 Rise Set
Actual Time
Civil Twilight
Nautical Twilight
Astronomical Twilight
Moon
Length of Visible Light
Length of Day
Tomorrow will be .
, % of the Moon is Illuminated

Today's Extremes

State Highs State Lows

Community

WunderPhotos

Upload Photos

1,962,540 photos uploaded!

WunderBlog® & News

Nearby

Air Quality

  Air Quality AQ Index Pollutant
Not available.

Snow Depth

Station Depth Elevation

Earthquake Activity

City Distance Mag. Time & Date
Minimum magnitude displayed is 2.5.

Coastal Water Temperatures

Place Temperature

Stations

Nearby Weather Stations

Station Location Temp. Windchill Dew Point Humidity Wind Precip. Elev Updated Type
                   

Watches & Warnings

Winter Storm Watch
Issued: 9:57 PM CST Feb. 22, 2017 – National Weather Service

... Winter Storm Watch remains in effect from Thursday evening
through Friday evening...

* timing... rain will turn to snow Thursday evening and continue
through Friday evening.

* Snow accumulations... 6 to 12 inches are possible, mainly from
east central Minnesota through west central Wisconsin. Totals
will drop off quickly west of a line from Hutchinson to Rush
City.

* Winds... northeast to northwest 20 to 30 mph with gusts to 40
mph resulting in considerable blowing snow and possible
blizzard conditions.

Precautionary/preparedness actions...

A Winter Storm Watch means there is a potential for significant
snow... sleet... or ice accumulations that may impact travel.
Continue to monitor the latest forecasts.



Borghoff